Euskara    
Meteorología y climatología de Navarra
Datos de la estación - Meteo Navarra

Estación de Carrascal GN

Altitud 568 m.


Datos desde el 25/08/2016 hasta el 26/08/2016 en horario solar
Los datos son PROVISIONALES

Anterior Página 1 de 1 Siguiente Descargar: Formato para Excel 2000 o superior   Formato csv   Formato para OpenOffice Calc
Fecha Temperatura Humedad relativa Radiación global Insolación Precipitación Vel. viento 10 m Vel. viento 10 m Dir. viento 10 m
°C % W/m² s l/m² m/s km/h °
25/08/2016 0:00 24.3 27 0.0 0 0.0 1.6 5.6 244
25/08/2016 0:10 24.7 27 0.0 0 0.0 1.0 3.7 213
25/08/2016 0:20 23.5 29 0.0 0 0.0 3.1 11.0 259
25/08/2016 0:30 22.2 31 0.0 0 0.0 2.7 9.8 259
25/08/2016 0:40 21.8 32 0.0 0 0.0 2.3 8.3 239
25/08/2016 0:50 21.0 33 0.0 0 0.0 2.0 7.2 217
25/08/2016 1:00 20.9 34 0.0 0 0.0 1.9 6.8 229
25/08/2016 1:10 21.5 33 0.0 0 0.0 2.2 7.8 247
25/08/2016 1:20 21.7 32 0.0 0 0.0 1.5 5.3 227
25/08/2016 1:30 21.7 33 0.0 0 0.0 3.4 12.1 131
25/08/2016 1:40 23.9 27 0.0 0 0.0 5.4 19.4 117
25/08/2016 1:50 25.1 24 0.0 0 0.0 6.0 21.7 118
25/08/2016 2:00 25.7 22 0.0 0 0.0 6.6 23.8 126
25/08/2016 2:10 25.6 22 0.0 0 0.0 7.1 25.7 129
25/08/2016 2:20 25.4 22 0.0 0 0.0 6.5 23.5 131
25/08/2016 2:30 25.4 22 0.0 0 0.0 7.0 25.2 134
25/08/2016 2:40 24.6 24 0.0 0 0.0 5.1 18.5 203
25/08/2016 2:50 22.3 29 0.0 0 0.0 4.3 15.6 222
25/08/2016 3:00 21.9 30 0.0 0 0.0 4.1 14.9 230
25/08/2016 3:10 21.1 31 0.0 0 0.0 3.5 12.6 245
25/08/2016 3:20 21.0 31 0.0 0 0.0 2.5 9.0 240
25/08/2016 3:30 20.6 31 0.0 0 0.0 3.0 10.8 241
25/08/2016 3:40 20.5 31 0.0 0 0.0 2.4 8.5 235
25/08/2016 3:50 20.2 32 0.0 0 0.0 2.1 7.4 230
25/08/2016 4:00 19.8 32 0.0 0 0.0 2.4 8.5 247
25/08/2016 4:10 19.5 34 0.0 0 0.0 2.0 7.2 210
25/08/2016 4:20 18.4 37 0.0 0 0.0 2.4 8.5 211
25/08/2016 4:30 18.3 39 0.0 0 0.0 2.5 9.0 183
25/08/2016 4:40 18.6 38 0.0 0 0.0 2.5 8.8 193
25/08/2016 4:50 17.7 41 0.0 0 0.0 2.8 9.9 202
25/08/2016 5:00 17.2 42 0.0 0 0.0 3.2 11.4 224
25/08/2016 5:10 17.1 43 0.0 0 0.0 2.8 10.1 219
25/08/2016 5:20 16.8 44 0.0 0 0.0 2.5 9.1 198
25/08/2016 5:30 16.4 45 0.0 0 0.0 3.0 10.9 200
25/08/2016 5:40 16.1 45 0.0 0 0.0 2.7 9.5 199
25/08/2016 5:50 16.5 44 0.0 0 0.0 3.0 10.7 197
25/08/2016 6:00 16.5 45 0.0 0 0.0 3.5 12.5 186
25/08/2016 6:10 16.7 45 0.8 0 0.0 3.3 12.0 190
25/08/2016 6:20 17.0 44 58.5 210 0.0 3.3 11.9 193
25/08/2016 6:30 17.0 44 140.2 600 0.0 2.9 10.6 184
25/08/2016 6:40 17.4 44 170.0 600 0.0 2.8 10.2 188
25/08/2016 6:50 18.6 41 201.6 600 0.0 3.2 11.4 211
25/08/2016 7:00 19.7 37 234.6 600 0.0 4.1 14.7 230
25/08/2016 7:10 20.1 35 267.5 600 0.0 4.2 15.2 234
25/08/2016 7:20 20.4 35 299.6 600 0.0 4.2 15.2 239
25/08/2016 7:30 20.8 35 332.6 600 0.0 4.2 15.2 242
25/08/2016 7:40 21.3 33 366.5 600 0.0 4.2 15.1 241
25/08/2016 7:50 21.9 32 399.7 600 0.0 4.5 16.2 238
25/08/2016 8:00 22.4 32 433.6 600 0.0 4.8 17.1 238
25/08/2016 8:10 23.1 31 466.6 600 0.0 4.5 16.1 240
25/08/2016 8:20 23.7 30 498.4 600 0.0 3.7 13.3 237
25/08/2016 8:30 24.2 30 528.3 600 0.0 4.5 16.2 237
25/08/2016 8:40 24.8 29 554.7 600 0.0 5.0 18.1 239
25/08/2016 8:50 25.4 28 574.2 600 0.0 5.1 18.3 243
25/08/2016 9:00 25.9 27 589.5 600 0.0 5.9 21.2 242
25/08/2016 9:10 26.5 26 604.6 600 0.0 5.2 18.6 227
25/08/2016 9:20 27.5 24 620.1 600 0.0 5.6 20.1 216
25/08/2016 9:30 28.0 23 637.6 600 0.0 6.1 22.1 192
25/08/2016 9:40 28.5 22 659.3 600 0.0 7.5 27.1 182
25/08/2016 9:50 28.8 22 678.5 600 0.0 6.3 22.8 181
25/08/2016 10:00 29.2 21 699.0 600 0.0 7.8 28.1 178
25/08/2016 10:10 29.0 20 719.9 600 0.0 8.3 29.8 179
25/08/2016 10:20 29.3 20 734.9 600 0.0 7.9 28.3 182
25/08/2016 10:30 29.6 19 742.6 600 0.0 7.0 25.3 185
25/08/2016 10:40 29.9 19 787.4 600 0.0 7.7 27.7 187
25/08/2016 10:50 30.3 17 780.5 600 0.0 7.9 28.3 186
25/08/2016 11:00 30.6 16 829.0 600 0.0 7.7 27.7 181
25/08/2016 11:10 31.3 15 840.0 600 0.0 7.9 28.4 178
25/08/2016 11:20 31.4 16 852.0 600 0.0 8.0 28.7 178
25/08/2016 11:30 32.0 15 863.0 600 0.0 6.5 23.4 149
25/08/2016 11:40 32.0 15 872.0 600 0.0 7.8 28.1 175
25/08/2016 11:50 32.2 15 881.0 600 0.0 9.3 33.6 176
25/08/2016 12:00 32.1 15 888.0 600 0.0 9.0 32.4 183
25/08/2016 12:10 32.4 14 891.0 600 0.0 7.8 28.2 178
25/08/2016 12:20 32.8 14 892.0 600 0.0 7.4 26.6 169
25/08/2016 12:30 33.4 14 895.0 600 0.0 7.9 28.4 178
25/08/2016 12:40 33.1 14 895.0 600 0.0 8.1 29.0 177
25/08/2016 12:50 33.0 13 900.0 600 0.0 9.3 33.3 177
25/08/2016 13:00 32.8 14 879.0 600 0.0 9.9 35.6 182
25/08/2016 13:10 33.2 13 901.0 600 0.0 9.9 35.8 181
25/08/2016 13:20 33.0 14 880.0 600 0.0 8.5 30.6 177
25/08/2016 13:30 33.6 13 872.0 600 0.0 8.8 31.7 176
25/08/2016 13:40 33.4 14 857.0 600 0.0 9.2 33.0 178
25/08/2016 13:50 33.6 14 845.0 600 0.0 8.6 31.1 178
25/08/2016 14:00 33.9 13 830.0 600 0.0 7.8 28.0 170
25/08/2016 14:10 34.0 14 756.6 600 0.0 7.4 26.6 184
25/08/2016 14:20 33.6 14 755.1 600 0.0 7.9 28.3 181
25/08/2016 14:30 34.0 14 750.2 600 0.0 7.2 25.9 177
25/08/2016 14:40 33.8 14 748.3 600 0.0 6.7 24.0 158
25/08/2016 14:50 34.1 14 713.6 600 0.0 6.5 23.3 181
25/08/2016 15:00 34.2 14 641.2 600 0.0 5.4 19.6 148
25/08/2016 15:10 33.8 14 547.7 600 0.0 5.1 18.3 146
25/08/2016 15:20 33.9 13 407.5 348 0.0 5.9 21.1 169
25/08/2016 15:30 33.6 14 474.7 600 0.0 5.2 18.8 150
25/08/2016 15:40 33.0 14 306.5 220 0.0 4.8 17.4 149
25/08/2016 15:50 32.8 15 268.5 112 0.0 4.5 16.1 143
25/08/2016 16:00 32.4 15 146.2 0 0.0 5.9 21.1 139
25/08/2016 16:10 31.9 15 118.1 0 0.0 5.0 17.9 146
25/08/2016 16:20 31.5 16 81.9 0 0.0 6.5 23.5 144
25/08/2016 16:30 31.9 15 217.5 148 0.0 6.5 23.5 153
25/08/2016 16:40 32.1 15 143.1 30 0.0 7.0 25.2 149
25/08/2016 16:50 31.5 15 71.1 0 0.0 6.5 23.4 149
25/08/2016 17:00 31.4 17 84.9 0 0.0 6.9 24.8 152
25/08/2016 17:10 31.3 16 82.2 0 0.0 7.5 27.0 150
25/08/2016 17:20 31.3 16 104.2 0 0.0 7.1 25.6 148
25/08/2016 17:30 31.4 16 88.3 0 0.0 7.5 26.9 150
25/08/2016 17:40 31.1 18 54.4 0 0.0 7.0 25.3 153
25/08/2016 17:50 30.8 18 50.7 0 0.0 5.9 21.2 148
25/08/2016 18:00 30.5 19 42.7 0 0.0 5.5 19.6 142
25/08/2016 18:10 30.4 20 49.1 0 0.0 5.8 20.8 144
25/08/2016 18:20 30.3 20 42.6 0 0.0 5.5 19.8 143
25/08/2016 18:30 30.2 20 37.2 428 0.0 5.5 19.9 142
25/08/2016 18:40 30.2 20 12.6 56 0.0 6.5 23.3 146
25/08/2016 18:50 29.9 21 0.0 0 0.0 6.5 23.3 146
25/08/2016 19:00 29.5 21 0.0 0 0.0 5.8 20.8 148
25/08/2016 19:10 29.2 22 0.0 0 0.0 6.1 22.0 139
25/08/2016 19:20 29.3 22 0.0 0 0.0 5.3 19.1 135
25/08/2016 19:30 29.1 22 0.0 0 0.0 5.4 19.6 135
25/08/2016 19:40 29.4 21 0.0 0 0.0 6.4 23.2 128
25/08/2016 19:50 29.5 22 0.0 0 0.0 5.5 19.7 129
25/08/2016 20:00 29.1 22 0.0 0 0.0 5.0 18.0 140
25/08/2016 20:10 28.8 23 0.0 0 0.0 4.6 16.6 137
25/08/2016 20:20 28.6 23 0.0 0 0.0 5.6 20.2 146
25/08/2016 20:30 28.2 23 0.0 0 0.0 4.8 17.3 160
25/08/2016 20:40 27.9 24 0.0 0 0.0 4.9 17.8 160
25/08/2016 20:50 27.8 24 0.0 0 0.0 5.1 18.3 158
25/08/2016 21:00 27.6 24 0.0 0 0.0 5.0 18.0 156
25/08/2016 21:10 27.4 25 0.0 0 0.0 5.5 19.6 151
25/08/2016 21:20 27.5 24 0.0 0 0.0 6.8 24.4 148
25/08/2016 21:30 27.6 25 0.0 0 0.0 7.1 25.7 148
25/08/2016 21:40 27.5 25 0.0 0 0.0 6.5 23.3 147
25/08/2016 21:50 27.2 26 0.0 0 0.0 6.2 22.5 147
25/08/2016 22:00 27.2 26 0.0 0 0.0 6.3 22.6 149
25/08/2016 22:10 27.0 26 0.0 0 0.0 6.6 23.8 151
25/08/2016 22:20 27.1 26 0.0 0 0.0 6.7 24.0 155
25/08/2016 22:30 27.2 26 0.0 0 0.0 7.4 26.8 149
25/08/2016 22:40 27.2 27 0.0 0 0.0 6.7 24.2 151
25/08/2016 22:50 27.0 27 0.0 0 0.0 6.5 23.2 156
25/08/2016 23:00 26.9 27 0.0 0 0.0 5.6 20.1 159
25/08/2016 23:10 26.5 28 0.0 0 0.0 4.7 16.8 156
25/08/2016 23:20 25.9 29 0.0 0 0.0 2.8 10.2 166
25/08/2016 23:30 25.5 30 0.0 0 0.0 2.4 8.5 152
25/08/2016 23:40 25.1 30 0.0 0 0.0 3.0 10.9 155
25/08/2016 23:50 25.6 30 0.0 0 0.0 5.0 18.0 131
Anterior Página 1 de 1 Siguiente

NOTA: Tipo de datos según el color:
   - Valores diarios o 10 minutos correctos
   - Valores diarios calculados a partir de un número de datos 10 minutos menor que 144 y mayor que 120, o de un número de datos semihorarios menor que 48 y mayor que 40 (caso de las estaciones de INTIA Y Ministerio)
   - Valores diez minutos estimados


Contacto        Enlaces        Aviso legal